Search for airport 
image banner adimage banner adimage banner ad
image banner ad

KNKX - Miramar Mcas

Located in San Diego, United States

ICAO - NKX, IATA -

Data provided by Airmate  

General information

Coordinates: N32°52'7" W117°8'35"
Elevation is 477 feet MSL.
Magnetic variation is 12° East
View others Airports in California

Operational data

Special qualification required
Current time UTC:
Current local time:
Weather
METAR: KNKX 221255Z 34005KT 10SM OVC008 17/15 A2992 RMK AO2 SLP126 T01720150 $
TAF: TAF KNKX 2209/2309 VRB05KT 9999 OVC011 QNH2989INS TEMPO 2210/2216 4800 BR OVC008 OVC150 FM221830 29008KT 9999 BKN015 BKN140 621609 500000 QNH2986INS TEMPO 2219/2301 8000 -RA BR SCT015 BKN140 BECMG 2302/2304 VRB05KT 9999 OVC011 OVC120 600000 QNH2986INS T16/2213Z T24/2220Z
View NOTAMs / SUP AIP / TFR affecting this airport [VIEW]
Communications frequencies: [VIEW]

Runways:

RWY identifierQFULength (ft)Width (ft)SurfaceLDA (ft)
06R75°8001200OTHER
24L255°8001200OTHER
06L75°12000200CONC
24R255°12000200CONC

Airport contact information

Address: San Diego United States

Satellite view of KNKX